Impacts METAR Board
IDs:

KTPL - Temple/Miller Rgnl, TX, US

Updated at: 0900 UTC 13 Aug 2022
Potential Impact None Slight Moderate High
Time 12/21Z 12/22Z 12/23Z 13/00Z 13/01Z 13/02Z 13/03Z 13/04Z 13/05Z 13/06Z 13/07Z 13/08Z 13/09Z
Temp96 98 96 96 93 91 89 85 82 81 81 79 76
Dewpt66 66 64 66 67 67 67 71 71 71 71 71 70
Altim29.96 29.95 29.93 29.93 29.94 29.96 29.97 30.00 30.01 30.01 30.01 30.01 30.01
VIS10 10 10 10 10 10 10 10 10 10 10 10 10
CIG70 -- -- -- -- -- -- -- -- 85 -- -- --
CoverBKNFEWCLRSCTCLRFEWFEWCLRCLRBKNSCTCLRCLR
FltCatVFRVFRVFRVFRVFRVFRVFRVFRVFRVFRVFRVFRVFR
WX--------------------------
WDir504050601001101701601800010
WSpd12 11 12 13 10 8 9 5 5 0 0 3
WGst20 14 -- -- -- -- -- -- -- -- -- -- --
Raw hourly METARs
KTPL 122051Z AUTO 05012G20KT 10SM BKN070 BKN110 36/19 A2996 RMK AO2 SLP131 6//// T03560189
KTPL 122151Z AUTO 04011G14KT 10SM FEW100 37/19 A2995 RMK AO2 SLP128 T03670189
KTPL 122251Z AUTO 05012KT 10SM CLR 36/18 A2993 RMK AO2 SLP124 T03560178
KTPL 122351Z AUTO 06013KT 10SM SCT080 36/19 A2993 RMK AO2 SLP122 6//// T03560189 10372 20333 56010
KTPL 130051Z AUTO 10SM CLR 34/19 A2994 RMK AO2 SLP126 T03390194 $
KTPL 130151Z AUTO 10010KT 10SM FEW075 33/19 A2996 RMK AO2 SLP132 T03280194
KTPL 130251Z AUTO 11008KT 10SM FEW110 32/19 A2997 RMK AO2 SLP137 6//// T03170194 53016
KTPL 130351Z AUTO 17009KT 10SM CLR 29/22 A3000 RMK AO2 SLP147 T02940217
KTPL 130451Z AUTO 16005KT 10SM CLR 28/22 A3001 RMK AO2 SLP150 T02780217
KTPL 130551Z AUTO 18005KT 10SM BKN085 27/22 A3001 RMK AO2 SLP150 6//// T02720217 10356 20267 403720233 51013
KTPL 130651Z AUTO 00000KT 10SM FEW075 SCT090 27/22 A3001 RMK AO2 SLP150 T02720217
KTPL 130751Z AUTO 00000KT 10SM CLR 26/22 A3001 RMK AO2 SLP149 T02610217
KTPL 130851Z AUTO 01003KT 10SM CLR 24/21 A3001 RMK AO2 SLP151 T02440211 55000